This is the latest recevied weather packets stored in our database for station/object VK3XEM-13. If no packets are shown the sender has not sent any weather packets the latest 1 day(s).
| Time | Temp. | Humidity | Pressure | Rain* | Wind** | Luminosity | Snow |
|---|---|---|---|---|---|---|---|
| 1778044634 | 16.11° C | 62% | 1014.1 hPa | 0 mm | - | 143 W/m² | - |
| 1778043734 | 16.11° C | 60% | 1014.4 hPa | 0 mm | - | 92 W/m² | - |
| 1778041934 | 15.56° C | 61% | 1014.8 hPa | 0 mm | - | 150 W/m² | - |
| 1778041035 | 16.11° C | 60% | 1014.8 hPa | 0 mm | - | 182 W/m² | - |
| 1778040135 | 17.22° C | 57% | 1014.8 hPa | 0 mm | - | 187 W/m² | - |
| 1778039234 | 15.56° C | 61% | 1015.1 hPa | 0 mm | - | 253 W/m² | - |
| 1778038334 | 16.11° C | 60% | 1015.4 hPa | 0 mm | - | 249 W/m² | - |
| 1778037434 | 15.56° C | 61% | 1015.8 hPa | 0 mm | - | 319 W/m² | - |
| 1778036534 | 15.56° C | 62% | 1016.1 hPa | 0 mm | - | 379 W/m² | - |
| 1778035634 | 15° C | 62% | 1016.1 hPa | 0 mm | - | 225 W/m² | - |
| 1778034735 | 15° C | 62% | 1016.5 hPa | 0 mm | - | 200 W/m² | - |
| 1778033834 | 15° C | 62% | 1016.8 hPa | 0 mm | - | 149 W/m² | - |
| 1778032934 | 15° C | 61% | 1017.1 hPa | 0 mm | - | 126 W/m² | - |
| 1778032035 | 15° C | 61% | 1017.1 hPa | 0 mm | - | 129 W/m² | - |
| 1778030234 | 14.44° C | 61% | 1017.8 hPa | 0 mm | - | 173 W/m² | - |
| 1778029334 | 14.44° C | 60% | 1017.8 hPa | 0 mm | - | 144 W/m² | - |
| 1778028434 | 14.44° C | 60% | 1017.8 hPa | 0 mm | - | 203 W/m² | - |
| 1778027535 | 14.44° C | 61% | 1018.1 hPa | 0 mm | - | 200 W/m² | - |
| 1778023034 | 13.33° C | 67% | 1018.5 hPa | 0 mm | - | 90 W/m² | - |
| 1778014934 | 12.78° C | 70% | 1018.8 hPa | 0 mm | - | 1 W/m² | - |
| 1778014034 | 12.22° C | 71% | 1018.8 hPa | 0 mm | - | 0 W/m² | - |
| 1778013134 | 12.22° C | 71% | 1018.8 hPa | 0 mm | - | 0 W/m² | - |
| 1778011334 | 12.22° C | 72% | 1018.8 hPa | 0 mm | - | 0 W/m² | - |
| 1778010435 | 12.22° C | 73% | 1018.8 hPa | 0 mm | - | 0 W/m² | - |
| 1778004134 | 12.22° C | 73% | 1018.8 hPa | 0 mm | - | 0 W/m² | - |
* Rain latest hour (hover to see other rain measurements)
** Current wind speed in m/s (hover to see current wind gust speed)